createdAt,value
2022-08-17T00:02:25.857Z,25.21
2022-08-17T00:04:54.066Z,25.22
2022-08-17T00:07:22.107Z,25.17
2022-08-17T00:09:49.309Z,25.18
2022-08-17T00:12:43.136Z,25.17
2022-08-17T00:15:03.955Z,25.16
2022-08-17T00:17:31.010Z,25.15
2022-08-17T00:19:58.072Z,25.14
2022-08-17T00:22:32.676Z,25.14
2022-08-17T00:25:02.503Z,25.14
2022-08-17T00:27:29.530Z,25.13
2022-08-17T00:29:56.707Z,25.11
2022-08-17T00:33:12.041Z,25.12
2022-08-17T00:35:10.774Z,25.12
2022-08-17T00:37:37.815Z,25.11
2022-08-17T00:40:05.025Z,25.10
2022-08-17T00:42:32.157Z,25.09
2022-08-17T00:44:59.203Z,25.08
2022-08-17T00:47:26.479Z,25.10
2022-08-17T00:49:54.045Z,25.09
2022-08-17T00:52:23.066Z,25.07
2022-08-17T00:54:51.741Z,25.09
2022-08-17T00:57:18.773Z,25.10
2022-08-17T00:59:47.145Z,25.08
2022-08-17T01:02:29.975Z,25.06
2022-08-17T01:05:01.542Z,25.05
2022-08-17T01:07:28.609Z,25.05
2022-08-17T01:09:55.722Z,25.03
2022-08-17T01:12:23.182Z,25.04
2022-08-17T01:14:50.495Z,25.05
2022-08-17T01:17:17.606Z,25.03
2022-08-17T01:19:45.302Z,25.04
2022-08-17T01:22:12.357Z,25.02
2022-08-17T01:24:39.398Z,25.03
2022-08-17T01:27:10.611Z,25.03
2022-08-17T01:29:37.835Z,25.02
2022-08-17T01:32:04.884Z,25.02
2022-08-17T01:34:43.402Z,25.01
2022-08-17T01:37:17.422Z,25.00
2022-08-17T01:39:44.612Z,25.00
2022-08-17T01:42:12.254Z,24.98
2022-08-17T01:44:41.107Z,24.98
2022-08-17T01:47:08.166Z,24.96
2022-08-17T01:49:35.239Z,24.95
2022-08-17T01:52:02.514Z,24.95
2022-08-17T01:54:29.581Z,24.96
2022-08-17T01:56:56.628Z,24.97
2022-08-17T01:59:23.685Z,24.98
2022-08-17T02:01:50.900Z,24.95
2022-08-17T02:04:17.986Z,24.96
2022-08-17T02:06:54.248Z,24.96
2022-08-17T02:09:23.314Z,24.93
2022-08-17T02:11:52.884Z,24.92
2022-08-17T02:14:21.192Z,24.91
2022-08-17T02:16:48.221Z,24.91
2022-08-17T02:19:15.836Z,24.91
2022-08-17T02:21:42.951Z,24.90
2022-08-17T02:24:10.890Z,24.90
2022-08-17T02:26:37.936Z,24.90
2022-08-17T02:29:05.036Z,24.90
2022-08-17T02:31:32.158Z,24.89
2022-08-17T02:34:04.222Z,24.88
2022-08-17T02:36:32.133Z,24.88
2022-08-17T02:39:00.159Z,24.88
2022-08-17T02:41:27.809Z,24.86
2022-08-17T02:43:54.872Z,24.87
2022-08-17T02:46:22.589Z,24.86
2022-08-17T02:48:49.715Z,24.85
2022-08-17T02:51:16.772Z,24.84
2022-08-17T02:53:43.826Z,24.85
2022-08-17T02:56:10.886Z,24.83
2022-08-17T02:58:37.936Z,24.85
2022-08-17T03:01:05.050Z,24.84
2022-08-17T03:03:32.110Z,24.81
2022-08-17T03:05:59.192Z,24.80
2022-08-17T03:08:26.301Z,24.81
2022-08-17T03:10:53.325Z,24.80
2022-08-17T03:13:20.963Z,24.82
2022-08-17T03:15:48.481Z,24.81
2022-08-17T03:18:24.280Z,24.79
2022-08-17T03:20:52.890Z,24.79
2022-08-17T03:23:24.290Z,24.81
2022-08-17T03:25:53.406Z,24.78
2022-08-17T03:28:20.758Z,24.77
2022-08-17T03:30:47.853Z,24.77
2022-08-17T03:33:16.225Z,24.76
2022-08-17T03:35:43.286Z,24.78
2022-08-17T03:38:10.360Z,24.76
2022-08-17T03:40:56.819Z,24.74
2022-08-17T03:43:24.478Z,24.74
2022-08-17T03:46:23.711Z,24.75
2022-08-17T03:49:16.250Z,24.75
2022-08-17T03:52:02.176Z,24.76
2022-08-17T03:54:47.833Z,24.75
2022-08-17T03:57:14.828Z,24.74
2022-08-17T03:59:41.956Z,24.73
2022-08-17T04:02:09.828Z,24.68
2022-08-17T04:04:36.872Z,24.66
2022-08-17T04:07:03.931Z,24.68
2022-08-17T04:09:31.100Z,24.67
2022-08-17T04:12:04.484Z,24.69
2022-08-17T04:14:52.149Z,24.69
2022-08-17T04:17:20.898Z,24.70
2022-08-17T04:19:48.085Z,24.69
2022-08-17T04:22:32.400Z,24.67
2022-08-17T04:25:01.100Z,24.67
2022-08-17T04:27:28.185Z,24.66
2022-08-17T04:29:56.109Z,24.65
2022-08-17T04:33:05.321Z,24.64
2022-08-17T04:35:10.438Z,24.65
2022-08-17T04:37:37.468Z,24.65
2022-08-17T04:40:27.251Z,24.65
2022-08-17T04:43:00.822Z,24.63
2022-08-17T04:45:28.179Z,24.64
2022-08-17T04:47:59.525Z,24.64
2022-08-17T04:50:26.573Z,24.64
2022-08-17T04:52:53.725Z,24.62
2022-08-17T04:55:20.946Z,24.62
2022-08-17T04:57:47.984Z,24.60
2022-08-17T05:00:15.048Z,24.60
2022-08-17T05:02:49.847Z,24.61
2022-08-17T05:05:17.664Z,24.60
2022-08-17T05:07:44.880Z,24.61
2022-08-17T05:10:11.925Z,24.61
2022-08-17T05:12:39.046Z,24.61
2022-08-17T05:15:06.104Z,24.59
2022-08-17T05:17:33.148Z,24.59
2022-08-17T05:20:00.346Z,24.59
2022-08-17T05:22:27.390Z,24.58
2022-08-17T05:24:55.625Z,24.60
2022-08-17T05:27:23.496Z,24.58
2022-08-17T05:29:50.678Z,24.55
2022-08-17T05:32:39.625Z,24.55
2022-08-17T05:35:07.204Z,24.53
2022-08-17T05:37:34.278Z,24.55
2022-08-17T05:40:01.450Z,24.54
2022-08-17T05:42:28.564Z,24.54
2022-08-17T05:44:55.600Z,24.55
2022-08-17T05:47:22.636Z,24.54
2022-08-17T05:49:49.693Z,24.54
2022-08-17T05:52:18.887Z,24.54
2022-08-17T05:54:47.382Z,24.54
2022-08-17T05:57:14.446Z,24.54
2022-08-17T05:59:41.587Z,24.54
2022-08-17T06:02:08.654Z,24.54
2022-08-17T06:04:35.794Z,24.54
2022-08-17T06:07:02.918Z,24.56
2022-08-17T06:09:33.669Z,24.55
2022-08-17T06:12:01.125Z,24.54
2022-08-17T06:14:29.634Z,24.55
2022-08-17T06:16:56.690Z,24.55
2022-08-17T06:19:23.730Z,24.58
2022-08-17T06:21:51.448Z,24.57
2022-08-17T06:24:18.532Z,24.56
2022-08-17T06:26:45.608Z,24.57
2022-08-17T06:29:18.672Z,24.56
2022-08-17T06:31:46.102Z,24.57
2022-08-17T06:34:13.224Z,24.57
2022-08-17T06:36:40.300Z,24.56
2022-08-17T06:39:07.631Z,24.57
2022-08-17T06:41:37.836Z,24.59
2022-08-17T06:44:05.109Z,24.58
2022-08-17T06:46:32.149Z,24.58
2022-08-17T06:48:59.176Z,24.57
2022-08-17T06:51:26.232Z,24.59
2022-08-17T06:53:53.282Z,24.59
2022-08-17T06:56:20.371Z,24.59
2022-08-17T06:58:48.339Z,24.59
2022-08-17T07:01:15.473Z,24.61
2022-08-17T07:03:42.632Z,24.61
2022-08-17T07:06:09.756Z,24.61
2022-08-17T07:08:38.074Z,24.64
2022-08-17T07:11:05.130Z,24.65
2022-08-17T07:13:32.243Z,24.65
2022-08-17T07:15:59.284Z,24.66
2022-08-17T07:18:26.352Z,24.67
2022-08-17T07:20:54.148Z,24.69
2022-08-17T07:23:21.936Z,24.70
2022-08-17T07:25:48.994Z,24.73
2022-08-17T07:28:17.150Z,24.73
2022-08-17T07:30:47.344Z,24.76
2022-08-17T07:33:14.629Z,24.78
2022-08-17T07:35:44.102Z,24.77
2022-08-17T07:38:25.770Z,24.79
2022-08-17T07:40:54.869Z,24.79
2022-08-17T07:43:23.629Z,24.80
2022-08-17T07:46:26.420Z,24.82
2022-08-17T07:48:53.708Z,24.82
2022-08-17T07:51:20.764Z,24.84
2022-08-17T07:53:47.845Z,24.86
2022-08-17T07:56:15.792Z,24.86
2022-08-17T07:58:42.819Z,24.87
2022-08-17T08:01:09.880Z,24.93
2022-08-17T08:03:36.942Z,25.09
2022-08-17T08:06:08.010Z,25.15
2022-08-17T08:08:35.132Z,25.24
2022-08-17T08:11:02.234Z,25.27
2022-08-17T08:13:30.211Z,25.30
2022-08-17T08:15:57.260Z,25.31
2022-08-17T08:18:39.718Z,25.32
2022-08-17T08:21:11.540Z,25.37
2022-08-17T08:23:39.277Z,25.43
2022-08-17T08:26:06.963Z,25.46
2022-08-17T08:28:35.134Z,25.52
2022-08-17T08:31:02.217Z,25.53
2022-08-17T08:33:29.462Z,25.54
2022-08-17T08:35:56.502Z,25.55
2022-08-17T08:38:23.732Z,25.62
2022-08-17T08:40:50.780Z,25.60
2022-08-17T08:43:17.919Z,25.57
2022-08-17T08:45:45.964Z,25.56
2022-08-17T08:48:45.972Z,25.62
2022-08-17T08:51:00.080Z,25.66
2022-08-17T08:53:27.326Z,25.75
2022-08-17T08:55:54.418Z,25.77
2022-08-17T08:58:31.510Z,25.74
2022-08-17T09:01:08.958Z,25.72
2022-08-17T09:03:52.784Z,25.74
2022-08-17T09:06:33.496Z,25.74
2022-08-17T09:09:06.675Z,25.76
2022-08-17T09:11:35.655Z,25.76
2022-08-17T09:14:28.807Z,25.77
2022-08-17T09:16:56.445Z,25.79
2022-08-17T09:19:30.063Z,25.81
2022-08-17T09:21:57.574Z,25.83
2022-08-17T09:24:24.615Z,25.86
2022-08-17T09:26:51.661Z,25.87
2022-08-17T09:29:24.387Z,25.87
2022-08-17T09:31:52.608Z,25.90
2022-08-17T09:34:19.830Z,25.94
2022-08-17T09:36:46.936Z,25.96
2022-08-17T09:39:17.690Z,25.98
2022-08-17T09:41:48.933Z,25.99
2022-08-17T09:44:23.317Z,26.01
2022-08-17T09:46:50.958Z,26.00
2022-08-17T09:49:21.911Z,25.99
2022-08-17T09:51:52.285Z,26.02
2022-08-17T09:54:37.987Z,26.02
2022-08-17T09:57:28.166Z,26.04
2022-08-17T09:59:52.508Z,26.05
2022-08-17T10:02:19.583Z,26.01
2022-08-17T10:04:47.801Z,26.03
2022-08-17T10:07:14.842Z,26.04
2022-08-17T10:09:41.898Z,26.05
2022-08-17T10:12:20.280Z,26.08
2022-08-17T10:14:53.574Z,26.05
2022-08-17T10:17:22.320Z,26.08
2022-08-17T10:19:49.363Z,26.11
2022-08-17T10:22:38.199Z,26.11
2022-08-17T10:25:30.080Z,26.15
2022-08-17T10:28:04.805Z,26.14
2022-08-17T10:30:31.854Z,26.15
2022-08-17T10:32:59.277Z,26.17
2022-08-17T10:35:26.383Z,26.19
2022-08-17T10:37:53.483Z,26.21
2022-08-17T10:40:20.670Z,26.21
2022-08-17T10:42:48.946Z,26.21
2022-08-17T10:45:16.002Z,26.24
2022-08-17T10:47:55.218Z,26.20
2022-08-17T10:50:23.191Z,26.21
2022-08-17T10:52:50.319Z,26.23
2022-08-17T10:55:17.893Z,26.23
2022-08-17T10:57:44.976Z,26.24
2022-08-17T11:00:14.752Z,26.21
2022-08-17T11:02:42.260Z,26.21
2022-08-17T11:05:09.340Z,26.23
2022-08-17T11:07:36.403Z,26.23
2022-08-17T11:10:03.484Z,26.23
2022-08-17T11:12:30.568Z,26.26
2022-08-17T11:14:58.033Z,26.28
2022-08-17T11:17:25.087Z,26.25
2022-08-17T11:19:52.151Z,26.27
2022-08-17T11:22:19.256Z,26.28
2022-08-17T11:24:47.903Z,26.25
2022-08-17T11:27:14.962Z,26.26
2022-08-17T11:29:42.223Z,26.27
2022-08-17T11:32:11.556Z,26.31
2022-08-17T11:34:38.590Z,26.34
2022-08-17T11:37:06.141Z,26.39
2022-08-17T11:39:33.276Z,26.39
2022-08-17T11:42:00.576Z,26.38
2022-08-17T11:44:27.672Z,26.37
2022-08-17T11:47:13.527Z,26.38
2022-08-17T11:49:59.211Z,26.41
2022-08-17T11:52:26.257Z,26.44
2022-08-17T11:54:53.772Z,26.46
2022-08-17T11:57:21.560Z,26.46
2022-08-17T11:59:48.635Z,26.46
2022-08-17T12:02:15.688Z,26.48
2022-08-17T12:04:47.234Z,26.47
2022-08-17T12:07:16.058Z,26.48
2022-08-17T12:09:43.119Z,26.46
2022-08-17T12:12:12.523Z,26.48
2022-08-17T12:15:08.342Z,26.33
2022-08-17T12:17:39.462Z,26.29
2022-08-17T12:20:15.524Z,26.26
2022-08-17T12:22:42.596Z,26.23
2022-08-17T12:25:10.307Z,26.20
2022-08-17T12:28:04.574Z,26.18
2022-08-17T12:30:24.380Z,26.20
2022-08-17T12:32:51.493Z,26.16
2022-08-17T12:35:18.530Z,26.17
2022-08-17T12:37:45.919Z,26.16
2022-08-17T12:40:13.114Z,26.12
2022-08-17T12:42:41.481Z,26.12
2022-08-17T12:45:08.837Z,26.12
2022-08-17T12:47:38.922Z,26.15
2022-08-17T12:50:08.247Z,26.13
2022-08-17T12:52:59.669Z,26.12
2022-08-17T12:55:33.746Z,26.10
2022-08-17T12:58:01.877Z,26.13
2022-08-17T13:00:29.382Z,26.10
2022-08-17T13:02:56.422Z,26.09
2022-08-17T13:05:23.527Z,26.10
2022-08-17T13:07:50.879Z,26.10
2022-08-17T13:10:18.358Z,26.11
2022-08-17T13:12:45.406Z,26.08
2022-08-17T13:15:12.483Z,26.10
2022-08-17T13:17:39.527Z,26.11
2022-08-17T13:20:06.793Z,26.09
2022-08-17T13:22:33.919Z,26.09
2022-08-17T13:25:03.608Z,26.10
2022-08-17T13:27:30.945Z,26.10
2022-08-17T13:29:59.530Z,26.10
2022-08-17T13:32:26.583Z,26.08
2022-08-17T13:35:13.829Z,26.09
2022-08-17T13:37:42.625Z,26.09
2022-08-17T13:40:10.013Z,26.08
2022-08-17T13:42:51.951Z,26.07
2022-08-17T13:45:35.355Z,26.07
2022-08-17T13:48:04.024Z,26.09
2022-08-17T13:50:31.063Z,26.10
2022-08-17T13:52:58.539Z,26.11
2022-08-17T13:55:25.615Z,26.11
2022-08-17T13:58:07.115Z,26.09
2022-08-17T14:00:35.475Z,26.10
2022-08-17T14:03:02.527Z,26.09
2022-08-17T14:05:29.595Z,26.07
2022-08-17T14:07:56.654Z,26.08
2022-08-17T14:10:23.710Z,26.06
2022-08-17T14:12:50.918Z,26.05
2022-08-17T14:15:18.047Z,26.07
2022-08-17T14:17:45.117Z,26.06
2022-08-17T14:20:12.239Z,26.05
2022-08-17T14:22:39.364Z,26.04
2022-08-17T14:25:10.255Z,26.05
2022-08-17T14:27:47.479Z,26.07
2022-08-17T14:30:20.373Z,26.09
2022-08-17T14:32:52.047Z,26.10
2022-08-17T14:35:19.236Z,26.11
2022-08-17T14:37:48.085Z,26.10
2022-08-17T14:40:15.196Z,26.11
2022-08-17T14:42:42.291Z,26.10
2022-08-17T14:45:29.918Z,26.11
2022-08-17T14:47:57.444Z,26.11
2022-08-17T14:50:24.723Z,26.12
2022-08-17T14:52:52.284Z,26.10
2022-08-17T14:55:20.826Z,26.12
2022-08-17T14:57:48.499Z,26.11
2022-08-17T15:00:16.678Z,26.12
2022-08-17T15:02:43.711Z,26.13
2022-08-17T15:05:10.775Z,26.12
2022-08-17T15:07:37.894Z,26.12
2022-08-17T15:10:04.952Z,26.12
2022-08-17T15:12:33.771Z,26.12
2022-08-17T15:15:01.616Z,26.12
2022-08-17T15:17:44.838Z,26.15
2022-08-17T15:20:14.838Z,26.16
2022-08-17T15:22:42.256Z,26.15
2022-08-17T15:25:09.283Z,26.18
2022-08-17T15:27:36.315Z,26.15
2022-08-17T15:30:03.348Z,26.17
2022-08-17T15:32:30.459Z,26.17
2022-08-17T15:34:57.503Z,26.17
2022-08-17T15:37:24.651Z,26.18
2022-08-17T15:39:51.813Z,26.17
2022-08-17T15:42:18.951Z,26.15
2022-08-17T15:44:45.986Z,26.16
2022-08-17T15:47:13.019Z,26.14
2022-08-17T15:49:40.510Z,26.15
2022-08-17T15:52:07.552Z,26.14
2022-08-17T15:54:35.970Z,26.15
2022-08-17T15:57:04.615Z,26.16
2022-08-17T15:59:31.678Z,26.16
2022-08-17T16:03:15.145Z,26.16
2022-08-17T16:04:46.799Z,26.15
2022-08-17T16:07:16.242Z,26.15
2022-08-17T16:09:43.282Z,26.13
2022-08-17T16:12:10.340Z,26.12
2022-08-17T16:14:37.447Z,26.13
2022-08-17T16:17:04.664Z,26.12
2022-08-17T16:19:33.064Z,26.15
2022-08-17T16:22:00.153Z,26.11
2022-08-17T16:24:27.195Z,26.10
2022-08-17T16:26:55.520Z,26.11
2022-08-17T16:29:22.695Z,26.12
2022-08-17T16:31:49.914Z,26.13
2022-08-17T16:34:18.881Z,26.12
2022-08-17T16:36:51.747Z,26.12
2022-08-17T16:39:23.349Z,26.09
2022-08-17T16:41:50.446Z,26.12
2022-08-17T16:44:17.482Z,26.14
2022-08-17T16:46:45.506Z,26.11
2022-08-17T16:49:35.574Z,26.12
2022-08-17T16:52:01.729Z,26.11
2022-08-17T16:54:28.755Z,26.10
2022-08-17T16:56:55.795Z,26.10
2022-08-17T16:59:31.071Z,26.12
2022-08-17T17:02:04.927Z,26.12
2022-08-17T17:04:35.097Z,26.11
2022-08-17T17:07:02.570Z,26.11
2022-08-17T17:09:29.671Z,26.09
2022-08-17T17:11:57.102Z,26.07
2022-08-17T17:14:25.346Z,26.10
2022-08-17T17:16:52.493Z,26.08
2022-08-17T17:19:19.644Z,26.10
2022-08-17T17:22:02.298Z,26.09
2022-08-17T17:24:29.921Z,26.09
2022-08-17T17:26:58.312Z,26.07
2022-08-17T17:29:25.399Z,26.02
2022-08-17T17:31:52.474Z,26.02
2022-08-17T17:34:19.514Z,26.04
2022-08-17T17:36:47.072Z,26.07
2022-08-17T17:39:14.138Z,26.04
2022-08-17T17:41:41.188Z,26.02
2022-08-17T17:44:08.240Z,26.03
2022-08-17T17:46:38.046Z,26.02
2022-08-17T17:49:06.116Z,26.01
2022-08-17T17:52:05.221Z,26.01
2022-08-17T17:54:20.583Z,26.01
2022-08-17T17:56:47.638Z,26.02
2022-08-17T17:59:14.687Z,26.04
2022-08-17T18:01:42.128Z,26.06
2022-08-17T18:04:20.688Z,26.05
2022-08-17T18:06:48.170Z,26.02
2022-08-17T18:09:17.981Z,26.02
2022-08-17T18:11:46.583Z,25.99
2022-08-17T18:14:18.557Z,25.98
2022-08-17T18:16:45.606Z,25.98
2022-08-17T18:19:13.089Z,25.99
2022-08-17T18:21:43.987Z,26.01
2022-08-17T18:24:11.033Z,26.01
2022-08-17T18:26:38.158Z,26.00
2022-08-17T18:29:07.020Z,25.97
2022-08-17T18:31:34.053Z,25.96
2022-08-17T18:34:01.097Z,25.97
2022-08-17T18:36:28.147Z,25.96
2022-08-17T18:38:55.186Z,25.92
2022-08-17T18:41:23.729Z,25.93
2022-08-17T18:43:52.890Z,25.95
2022-08-17T18:46:28.969Z,25.94
2022-08-17T18:48:59.001Z,25.92
2022-08-17T18:51:40.409Z,25.94
2022-08-17T18:54:09.666Z,25.94
2022-08-17T18:56:36.712Z,25.91
2022-08-17T18:59:04.364Z,25.94
2022-08-17T19:01:46.984Z,25.94
2022-08-17T19:04:18.433Z,25.92
2022-08-17T19:06:45.484Z,25.91
2022-08-17T19:09:12.530Z,25.89
2022-08-17T19:11:39.742Z,25.88
2022-08-17T19:14:06.814Z,25.90
2022-08-17T19:16:33.854Z,25.89
2022-08-17T19:19:00.879Z,25.86
2022-08-17T19:21:27.986Z,25.87
2022-08-17T19:23:55.541Z,25.88
2022-08-17T19:26:51.375Z,25.87
2022-08-17T19:29:09.981Z,25.86
2022-08-17T19:31:37.035Z,25.86
2022-08-17T19:34:04.081Z,25.85
2022-08-17T19:36:31.130Z,25.85
2022-08-17T19:38:58.767Z,25.83
2022-08-17T19:41:25.802Z,25.82
2022-08-17T19:43:52.847Z,25.82
2022-08-17T19:46:19.963Z,25.81
2022-08-17T19:48:47.162Z,25.80
2022-08-17T19:51:14.730Z,25.79
2022-08-17T19:54:04.451Z,25.77
2022-08-17T19:56:29.833Z,25.76
2022-08-17T19:58:57.172Z,25.75
2022-08-17T20:01:24.298Z,25.71
2022-08-17T20:03:51.762Z,25.71
2022-08-17T20:06:18.808Z,25.76
2022-08-17T20:08:45.851Z,25.72
2022-08-17T20:11:12.888Z,25.72
2022-08-17T20:13:39.936Z,25.73
2022-08-17T20:16:06.967Z,25.73
2022-08-17T20:18:38.109Z,25.71
2022-08-17T20:21:11.015Z,25.69
2022-08-17T20:23:47.444Z,25.69
2022-08-17T20:26:18.605Z,25.70
2022-08-17T20:28:46.251Z,25.68
2022-08-17T20:31:13.295Z,25.65
2022-08-17T20:33:40.345Z,25.64
2022-08-17T20:36:07.384Z,25.63
2022-08-17T20:38:36.210Z,25.62
2022-08-17T20:41:03.912Z,25.66
2022-08-17T20:43:30.960Z,25.63
2022-08-17T20:45:58.029Z,25.62
2022-08-17T20:48:37.466Z,25.62
2022-08-17T20:51:05.816Z,25.61
2022-08-17T20:53:32.865Z,25.64
2022-08-17T20:55:59.912Z,25.65
2022-08-17T20:58:29.983Z,25.68
2022-08-17T21:01:01.539Z,25.67
2022-08-17T21:03:51.041Z,25.67
2022-08-17T21:06:18.803Z,25.65
2022-08-17T21:08:47.051Z,25.60
2022-08-17T21:11:14.091Z,25.57
2022-08-17T21:13:41.183Z,25.58
2022-08-17T21:16:08.231Z,25.57
2022-08-17T21:18:38.606Z,25.56
2022-08-17T21:21:06.414Z,25.55
2022-08-17T21:23:33.466Z,25.52
2022-08-17T21:26:00.979Z,25.54
2022-08-17T21:28:30.024Z,25.54
2022-08-17T21:31:08.992Z,25.52
2022-08-17T21:33:36.371Z,25.52
2022-08-17T21:36:03.406Z,25.55
2022-08-17T21:38:34.205Z,25.53
2022-08-17T21:41:04.391Z,25.51
2022-08-17T21:43:32.021Z,25.51
2022-08-17T21:45:59.085Z,25.49
2022-08-17T21:48:27.148Z,25.51
2022-08-17T21:50:54.191Z,25.50
2022-08-17T21:53:21.248Z,25.52
2022-08-17T21:55:48.274Z,25.51
2022-08-17T21:58:15.438Z,25.50
2022-08-17T22:00:44.688Z,25.52
2022-08-17T22:03:11.936Z,25.53
2022-08-17T22:05:39.058Z,25.51
2022-08-17T22:08:06.482Z,25.49
2022-08-17T22:10:33.542Z,25.48
2022-08-17T22:13:00.583Z,25.48
2022-08-17T22:15:27.988Z,25.47
2022-08-17T22:17:55.790Z,25.43
2022-08-17T22:20:22.827Z,25.46
2022-08-17T22:23:08.801Z,25.47
2022-08-17T22:25:35.984Z,25.47
2022-08-17T22:28:03.023Z,25.43
2022-08-17T22:30:30.082Z,25.43
2022-08-17T22:32:57.118Z,25.42
2022-08-17T22:35:24.165Z,25.41
2022-08-17T22:37:51.818Z,25.44
2022-08-17T22:40:19.055Z,25.42
2022-08-17T22:42:47.612Z,25.42
2022-08-17T22:45:15.040Z,25.44
2022-08-17T22:47:48.579Z,25.43
2022-08-17T22:50:15.675Z,25.42
2022-08-17T22:53:01.602Z,25.44
2022-08-17T22:55:47.564Z,25.42
2022-08-17T22:58:33.215Z,25.39
2022-08-17T23:01:00.198Z,25.39
2022-08-17T23:03:28.069Z,25.37
2022-08-17T23:05:56.681Z,25.39
2022-08-17T23:08:24.169Z,25.38
2022-08-17T23:10:51.356Z,25.38
2022-08-17T23:13:18.458Z,25.36
2022-08-17T23:15:45.883Z,25.36
2022-08-17T23:18:12.971Z,25.36
2022-08-17T23:20:40.063Z,25.33
2022-08-17T23:23:07.153Z,25.32
2022-08-17T23:25:34.214Z,25.32
2022-08-17T23:28:01.746Z,25.36
2022-08-17T23:30:30.503Z,25.36
2022-08-17T23:32:59.621Z,25.33
2022-08-17T23:35:40.461Z,25.32
2022-08-17T23:38:08.127Z,25.30
2022-08-17T23:40:35.265Z,25.31
2022-08-17T23:43:05.898Z,25.31
2022-08-17T23:45:39.971Z,25.30
2022-08-17T23:48:07.922Z,25.29
2022-08-17T23:50:35.035Z,25.29
2022-08-17T23:53:03.139Z,25.29
2022-08-17T23:55:34.542Z,25.29
2022-08-17T23:58:01.769Z,25.29
